Terminal Aerodrome Forecast
Issued by NWS

Home | Current Version | Previous Version | Graphics & Text | Print | Product List | Glossary On
Versions: 1 2 3 4 5 6 7 8 9 10 11 12 13 14 15 16 17 18 19 20 21
401
FTUS43 KGRB 281735
TAFAUW
TAF
KAUW 281735Z 2818/2918 27009G15KT P6SM BKN035
      TEMPO 2818/2821 SCT035 SCT100
     FM282100 27008KT P6SM SCT035 BKN100
     FM290200 34005KT P6SM FEW040 BKN080
     FM290700 01007KT P6SM SCT070 BKN100
     FM291400 04007KT P6SM SCT120 BKN200=

USA.gov is the U.S. government's official web portal to all federal, state and local government web resources and services.